This is the latest recevied weather packets stored in our database for station/object AD8PA-13. If no packets are shown the sender has not sent any weather packets the latest 10 day(s).
| Time | Temp. | Humidity | Pressure | Rain* | Wind** | Luminosity | Snow |
|---|---|---|---|---|---|---|---|
| 1777294272 | 11.11° C | 76% | 1020.8 hPa | 0 mm | - | - | - |
| 1777293371 | 10.56° C | 80% | 1020.4 hPa | 0 mm | - | - | - |
| 1777292469 | 10° C | 81% | 1020.5 hPa | 0 mm | - | - | - |
| 1777291563 | 8.89° C | 84% | 1020.5 hPa | 0 mm | - | - | - |
| 1777290660 | 8.33° C | 84% | 1020.5 hPa | 0 mm | - | - | - |
| 1777289760 | 8.33° C | 84% | 1020.7 hPa | 0 mm | - | - | - |
| 1777288856 | 7.22° C | 88% | 1020.7 hPa | 0 mm | - | - | - |
| 1777287951 | 6.67° C | 90% | 1020.6 hPa | 0 mm | - | - | - |
| 1777287046 | 6.11° C | 91% | 1020.6 hPa | 0 mm | - | - | - |
| 1777286144 | 6.11° C | 91% | 1020.6 hPa | 0 mm | - | - | - |
| 1777285242 | 5.56° C | 92% | 1020.1 hPa | 0 mm | - | - | - |
| 1777284338 | 5.56° C | 93% | 1020.6 hPa | 0 mm | - | - | - |
| 1777283436 | 5.56° C | 94% | 1020.7 hPa | 0 mm | - | - | - |
| 1777282532 | 5° C | 95% | 1020.6 hPa | 0 mm | - | - | - |
| 1777281630 | 5° C | 95% | 1020.9 hPa | 0 mm | - | - | - |
| 1777280727 | 5° C | 94% | 1020.8 hPa | 0 mm | - | - | - |
| 1777279822 | 5° C | 94% | 1020.5 hPa | 0 mm | - | - | - |
| 1777278921 | 4.44° C | 92% | 1020.7 hPa | 0 mm | - | - | - |
| 1777278015 | 5° C | 91% | 1020.5 hPa | 0 mm | - | - | - |
| 1777277109 | 5.56° C | 90% | 1020.5 hPa | 0 mm | - | - | - |
| 1777276209 | 6.11° C | 89% | 1020.5 hPa | 0 mm | - | - | - |
| 1777275308 | 6.67° C | 88% | 1020.2 hPa | 0 mm | - | - | - |
| 1777274407 | 6.67° C | 87% | 1020.6 hPa | 0 mm | - | - | - |
| 1777273502 | 6.67° C | 86% | 1020.8 hPa | 0 mm | - | - | - |
| 1777272600 | 6.67° C | 85% | 1020.8 hPa | 0 mm | - | - | - |
* Rain latest hour (hover to see other rain measurements)
** Current wind speed in m/s (hover to see current wind gust speed)